SBMG

Details ICAO SBMG (MGF)
Name Maringa Regional Airport
Region Brazil
Timezone America/Sao_Paulo (UTC-3.0)
Plans Departing 87
Arriving 67
Stats Elevation 1,788 ft / 545 m (AMSL)
Location -23.476100° -52.016500°
Runways 1
Magnetic Variation 18.739° W
Sunrise 2019-05-20 09:58:21 UTC / 2019-05-20 06:58:21 Local
Sunset 2019-05-20 20:53:39 UTC / 2019-05-20 17:53:39 Local
Advertisement - Login to hide

Runways

ID Width Length Bearing (true/mag) Surface Threshold Overrun Markings Lighting
09 148 ft / 45 m 6,896 ft / 2,102 m 77.78° / 96.52° ASPHALT 0 ft / 0 m 197 ft / 60 m PREC-APP EDGE THRESHOLD
27 148 ft / 45 m 6,896 ft / 2,102 m 257.78° / 276.52° ASPHALT 0 ft / 0 m 197 ft / 60 m PREC-APP EDGE THRESHOLD

Map

Weather


0- 5 10 15 20 25 30 35+ Temperature / °C

Clouds and Precipitation
Forecast for 2019-05-20 12:00 UTC. Updated an hour ago

Ground ~20,000 ft ~40,000 ft Winds

METAR

SBMG 201000Z 10004KT CAVOK 15/14 Q1016

TAF

Not found

Frequencies

Tower 118.75 MHz Maringa Tower
Unicom 122.80 MHz Maringa Unicom
Approach 129.70 MHz Londrina Approach
Warning: Do not use this data for real-world aviation or navigation. No guarantee of current accuracy is given.